Maria Dolores, Chile

4:47 PM CLT on August 30, 2015 (GMT -0300)
Maria Dolores | | Change Station
CLOSE
Current Station
Airport
Location: Maria Dolores,
Elevation: 374 ft
Nearby Weather Stations

Elev 374 ft 37.40 °S, 72.43 °W | Updated 47 minutes ago

Mostly Cloudy
Mostly Cloudy
66 °F
Feels Like 66 °F
N
7
Wind Variable Wind from North

Today
High -- | Low -- °F
--% Chance of Precip.
Yesterday
High -- | Low -- °F
Precip. -- in
8:14 AM 7:27 PM
Full, 98% visible
Pressure 30.04 in
Visibility 6.2 miles
Clouds Mostly Cloudy 1600 ft
Mostly Cloudy 2600 ft
Dew Point 50 °F
Humidity 56%
Rainfall 0.00 in
Snow Depth Not available.
UV 3 out of 12
Pollen Not available.
Air Quality Not available.
Flu Activity Not available.
METAR SCGE 301900Z 35006KT 9999 BKN016 BKN026 19/10 Q1017
Pressure 30.04 in
Visibility 6.2 miles
Clouds Mostly Cloudy 1600 ft
Mostly Cloudy 2600 ft
Dew Point 50 °F
Humidity 56%
Rainfall 0.00 in
Snow Depth Not available.
UV 3 out of 12
Pollen Not available.
Air Quality Not available.
Flu Activity Not available.
METAR SCGE 301900Z 35006KT 9999 BKN016 BKN026 19/10 Q1017

10-Day Weather Forecast

×

Almanac

Astronomy

Aug. 30, 2015 Rise Set
Actual Time
Civil Twilight
Nautical Twilight
Astronomical Twilight
Moon
Length of Visible Light
Length of Day
Tomorrow will be .
, % of the Moon is Illuminated

Today's Extremes

Country Highs Country Lows

Community

WunderPhotos

Upload Photos

1,851,041 photos uploaded!

WunderBlogs® & News

Nearby

Air Quality

  Air Quality AQ Index Pollutant
Not available.

Snow Depth

Station Depth Elevation

Earthquake Activity

City Distance Mag. Time & Date
Minimum magnitude displayed is 2.5.

Coastal Water Temperatures

Place Temperature

Stations

Nearby Weather Stations

Station Location Temp. Windchill Dew Point Humidity Wind Precip. Elev Updated Type